Union Star, Missouri
Current Conditions -  °F | °C
As of 3:46 AM on Thursday 18 Dec 2014 (Local Time) from KSTJ Reporting Station
Light Snow Light Snow  
Wind Chill: 23°   Ceiling: 2800
Heat Index: 28°   Visibility: 2.5mi
Dew Point: 26°   Wind: 5mph
Humidity: 92%   Direction: 90°E
Pressure: 30.24"   Gusts: NA
Location:  39.98°N, 94.59°W
Report Text: KSTJ 180946Z AUTO 09004KT 2 1/2SM -SN BR BKN028 BKN034 OVC042 M02/M03 A3024 RMK AO2 P0002 T10221033
Loading
Personal Weather Stations






























Interactive Weather Map New forecast layout! Learn more

10-Day Weather Forecast

Advertisements
Track Severe Weather on mobile